createdAt,value
2018-05-23T00:00:55.860Z,84.88
2018-05-23T00:01:55.841Z,83.83
2018-05-23T00:02:55.824Z,85.08
2018-05-23T00:03:55.801Z,85.08
2018-05-23T00:04:55.781Z,83.73
2018-05-23T00:05:55.763Z,85.22
2018-05-23T00:06:55.743Z,83.54
2018-05-23T00:07:55.722Z,83.83
2018-05-23T00:08:55.704Z,83.54
2018-05-23T00:09:55.684Z,82.49
2018-05-23T00:10:55.663Z,82.97
2018-05-23T00:11:55.645Z,82.87
2018-05-23T00:12:55.627Z,84.12
2018-05-23T00:13:56.367Z,85.17
2018-05-23T00:14:55.585Z,84.79
2018-05-23T00:15:55.565Z,84.75
2018-05-23T00:16:55.550Z,85.84
2018-05-23T00:17:55.527Z,87.23
2018-05-23T00:18:55.509Z,85.03
2018-05-23T00:19:55.488Z,87.27
2018-05-23T00:20:55.467Z,86.28
2018-05-23T00:21:55.448Z,87.47
2018-05-23T00:22:55.427Z,87.23
2018-05-23T00:23:55.408Z,85.65
2018-05-23T00:24:55.390Z,87.23
2018-05-23T00:25:55.370Z,86.22
2018-05-23T00:26:55.349Z,85.80
2018-05-23T00:27:55.329Z,85.32
2018-05-23T00:28:55.310Z,84.55
2018-05-23T00:29:55.290Z,83.83
2018-05-23T00:30:55.271Z,83.98
2018-05-23T00:31:55.252Z,84.55
2018-05-23T00:32:55.232Z,84.75
2018-05-23T00:33:55.212Z,83.89
2018-05-23T00:34:55.190Z,85.22
2018-05-23T00:35:55.171Z,85.61
2018-05-23T00:36:55.152Z,84.46
2018-05-23T00:37:55.133Z,83.60
2018-05-23T00:38:55.112Z,85.36
2018-05-23T00:39:55.091Z,85.03
2018-05-23T00:40:55.073Z,83.26
2018-05-23T00:41:55.053Z,83.45
2018-05-23T00:42:55.032Z,83.60
2018-05-23T00:43:55.012Z,83.89
2018-05-23T00:44:54.993Z,83.89
2018-05-23T00:45:54.974Z,83.73
2018-05-23T00:46:54.952Z,83.73
2018-05-23T00:47:54.939Z,83.64
2018-05-23T00:48:54.914Z,83.73
2018-05-23T00:49:54.893Z,83.26
2018-05-23T00:50:54.877Z,83.83
2018-05-23T00:51:54.853Z,83.73
2018-05-23T00:52:54.839Z,83.73
2018-05-23T00:53:54.816Z,85.17
2018-05-23T00:54:54.797Z,85.65
2018-05-23T00:55:54.776Z,85.08
2018-05-23T00:56:54.756Z,85.27
2018-05-23T00:57:54.736Z,85.08
2018-05-23T00:58:54.715Z,84.65
2018-05-23T00:59:54.696Z,84.84
2018-05-23T01:00:54.677Z,84.69
2018-05-23T01:01:54.657Z,84.98
2018-05-23T01:02:54.636Z,84.69
2018-05-23T01:03:54.616Z,83.93
2018-05-23T01:04:54.597Z,84.41
2018-05-23T01:05:54.582Z,85.17
2018-05-23T01:06:54.558Z,85.17
2018-05-23T01:07:54.538Z,86.13
2018-05-23T01:08:54.520Z,85.46
2018-05-23T01:09:54.501Z,86.61
2018-05-23T01:10:54.478Z,85.46
2018-05-23T01:11:54.462Z,85.36
2018-05-23T01:12:54.442Z,85.65
2018-05-23T01:13:54.421Z,85.27
2018-05-23T01:14:54.401Z,85.36
2018-05-23T01:15:54.382Z,84.69
2018-05-23T01:16:54.362Z,85.08
2018-05-23T01:17:54.343Z,85.36
2018-05-23T01:18:54.321Z,85.08
2018-05-23T01:19:54.303Z,85.27
2018-05-23T01:20:54.283Z,85.27
2018-05-23T01:21:54.263Z,85.03
2018-05-23T01:22:54.246Z,85.32
2018-05-23T01:23:54.223Z,84.88
2018-05-23T01:24:54.203Z,85.27
2018-05-23T01:25:54.184Z,85.17
2018-05-23T01:26:54.168Z,85.08
2018-05-23T01:27:54.144Z,85.17
2018-05-23T01:28:54.124Z,85.36
2018-05-23T01:29:54.106Z,85.27
2018-05-23T01:30:54.083Z,85.08
2018-05-23T01:31:54.065Z,85.17
2018-05-23T01:32:54.045Z,83.64
2018-05-23T01:33:54.026Z,83.83
2018-05-23T01:34:54.004Z,83.64
2018-05-23T01:35:53.986Z,84.98
2018-05-23T01:36:53.965Z,84.69
2018-05-23T01:37:53.947Z,84.88
2018-05-23T01:38:53.926Z,85.46
2018-05-23T01:39:53.906Z,85.27
2018-05-23T01:40:53.886Z,84.27
2018-05-23T01:41:53.871Z,84.41
2018-05-23T01:42:53.850Z,83.60
2018-05-23T01:43:53.828Z,83.50
2018-05-23T01:44:53.807Z,83.50
2018-05-23T01:45:53.789Z,82.93
2018-05-23T01:46:53.767Z,83.79
2018-05-23T01:47:53.749Z,83.50
2018-05-23T01:48:53.729Z,83.83
2018-05-23T01:49:53.709Z,83.83
2018-05-23T01:50:53.689Z,83.73
2018-05-23T01:51:53.670Z,83.64
2018-05-23T01:52:54.400Z,83.83
2018-05-23T01:53:53.630Z,83.93
2018-05-23T01:54:53.611Z,84.41
2018-05-23T01:55:53.592Z,83.73
2018-05-23T01:56:53.572Z,83.73
2018-05-23T01:57:53.552Z,83.73
2018-05-23T01:58:53.530Z,82.78
2018-05-23T01:59:53.512Z,83.16
2018-05-23T02:00:53.497Z,83.16
2018-05-23T02:01:53.474Z,83.06
2018-05-23T02:02:53.452Z,82.49
2018-05-23T02:03:54.184Z,83.16
2018-05-23T02:04:53.414Z,82.87
2018-05-23T02:05:53.394Z,82.40
2018-05-23T02:06:53.375Z,82.40
2018-05-23T02:07:53.360Z,82.49
2018-05-23T02:08:53.336Z,82.68
2018-05-23T02:09:53.317Z,81.82
2018-05-23T02:10:53.297Z,82.78
2018-05-23T02:11:53.280Z,81.92
2018-05-23T02:12:53.259Z,82.20
2018-05-23T02:13:53.239Z,82.01
2018-05-23T02:14:53.217Z,81.92
2018-05-23T02:15:53.198Z,80.87
2018-05-23T02:16:53.179Z,81.15
2018-05-23T02:17:53.160Z,81.92
2018-05-23T02:18:53.140Z,82.11
2018-05-23T02:19:53.121Z,82.40
2018-05-23T02:20:53.101Z,81.92
2018-05-23T02:21:53.081Z,82.49
2018-05-23T02:22:53.062Z,82.30
2018-05-23T02:23:53.043Z,81.92
2018-05-23T02:24:53.022Z,82.30
2018-05-23T02:25:53.006Z,82.11
2018-05-23T02:26:52.983Z,82.11
2018-05-23T02:27:52.963Z,82.59
2018-05-23T02:28:52.944Z,81.63
2018-05-23T02:29:52.924Z,81.73
2018-05-23T02:30:52.905Z,81.82
2018-05-23T02:31:52.886Z,82.49
2018-05-23T02:32:52.868Z,82.87
2018-05-23T02:33:52.848Z,80.06
2018-05-23T02:34:52.827Z,79.58
2018-05-23T02:35:53.558Z,80.92
2018-05-23T02:36:52.788Z,80.44
2018-05-23T02:37:52.771Z,79.77
2018-05-23T02:38:52.749Z,78.91
2018-05-23T02:39:52.729Z,78.63
2018-05-23T02:40:52.711Z,79.49
2018-05-23T02:41:52.689Z,79.20
2018-05-23T02:42:52.676Z,79.58
2018-05-23T02:43:52.650Z,78.81
2018-05-23T02:44:52.632Z,79.20
2018-05-23T02:45:52.613Z,79.29
2018-05-23T02:46:52.592Z,78.91
2018-05-23T02:47:52.573Z,79.49
2018-05-23T02:48:52.553Z,79.20
2018-05-23T02:49:52.534Z,79.49
2018-05-23T02:50:52.514Z,79.68
2018-05-23T02:51:52.496Z,79.77
2018-05-23T02:52:52.480Z,80.06
2018-05-23T02:53:52.458Z,78.91
2018-05-23T02:54:52.436Z,79.49
2018-05-23T02:55:52.416Z,79.49
2018-05-23T02:56:52.397Z,79.96
2018-05-23T02:57:54.629Z,80.54
2018-05-23T02:58:52.357Z,80.92
2018-05-23T02:59:52.337Z,80.92
2018-05-23T03:00:52.321Z,80.92
2018-05-23T03:01:52.299Z,81.21
2018-05-23T03:02:52.369Z,82.07
2018-05-23T03:03:53.759Z,81.78
2018-05-23T03:04:52.239Z,81.97
2018-05-23T03:05:52.218Z,81.97
2018-05-23T03:06:52.199Z,81.88
2018-05-23T03:07:52.178Z,81.40
2018-05-23T03:08:52.159Z,81.40
2018-05-23T03:09:52.140Z,81.30
2018-05-23T03:10:52.121Z,81.11
2018-05-23T03:11:52.100Z,81.11
2018-05-23T03:12:52.080Z,79.96
2018-05-23T03:13:52.061Z,79.64
2018-05-23T03:14:52.039Z,79.29
2018-05-23T03:15:52.020Z,79.49
2018-05-23T03:16:52.001Z,78.97
2018-05-23T03:17:51.980Z,79.16
2018-05-23T03:18:51.961Z,78.87
2018-05-23T03:19:51.941Z,79.00
2018-05-23T03:20:52.672Z,79.00
2018-05-23T03:21:51.901Z,78.78
2018-05-23T03:22:51.880Z,78.81
2018-05-23T03:23:51.865Z,78.78
2018-05-23T03:24:51.845Z,78.49
2018-05-23T03:25:51.821Z,78.49
2018-05-23T03:26:51.802Z,78.87
2018-05-23T03:27:51.781Z,78.20
2018-05-23T03:28:51.763Z,78.20
2018-05-23T03:29:51.743Z,78.24
2018-05-23T03:30:51.726Z,78.34
2018-05-23T03:31:51.711Z,79.20
2018-05-23T03:32:51.689Z,79.35
2018-05-23T03:33:51.664Z,78.91
2018-05-23T03:34:51.644Z,78.81
2018-05-23T03:35:51.625Z,79.39
2018-05-23T03:36:51.605Z,79.00
2018-05-23T03:37:51.584Z,79.58
2018-05-23T03:38:51.566Z,79.54
2018-05-23T03:39:51.544Z,79.00
2018-05-23T03:40:51.525Z,78.87
2018-05-23T03:41:52.257Z,78.91
2018-05-23T03:42:51.486Z,79.20
2018-05-23T03:43:51.466Z,79.20
2018-05-23T03:44:51.453Z,78.63
2018-05-23T03:45:51.439Z,78.39
2018-05-23T03:46:51.406Z,78.81
2018-05-23T03:47:51.386Z,79.87
2018-05-23T03:48:51.367Z,79.87
2018-05-23T03:49:51.348Z,80.25
2018-05-23T03:50:51.326Z,79.96
2018-05-23T03:51:51.308Z,80.16
2018-05-23T03:52:51.288Z,79.96
2018-05-23T03:53:51.270Z,80.06
2018-05-23T03:54:51.248Z,79.96
2018-05-23T03:55:51.228Z,79.96
2018-05-23T03:56:51.210Z,79.39
2018-05-23T03:57:51.190Z,79.68
2018-05-23T03:58:51.169Z,79.58
2018-05-23T03:59:51.150Z,79.20
2018-05-23T04:00:51.131Z,79.20
2018-05-23T04:01:51.110Z,78.81
2018-05-23T04:02:51.091Z,79.39
2018-05-23T04:03:51.071Z,79.68
2018-05-23T04:04:51.134Z,79.49
2018-05-23T04:05:51.032Z,79.39
2018-05-23T04:06:51.013Z,79.24
2018-05-23T04:07:50.993Z,79.14
2018-05-23T04:08:50.972Z,79.43
2018-05-23T04:09:50.952Z,79.72
2018-05-23T04:10:50.933Z,78.95
2018-05-23T04:11:50.913Z,79.33
2018-05-23T04:12:50.895Z,79.14
2018-05-23T04:13:50.875Z,78.86
2018-05-23T04:14:50.855Z,79.14
2018-05-23T04:15:50.836Z,80.00
2018-05-23T04:16:50.816Z,79.33
2018-05-23T04:17:50.797Z,79.14
2018-05-23T04:18:50.777Z,78.95
2018-05-23T04:19:50.756Z,79.81
2018-05-23T04:20:50.737Z,79.43
2018-05-23T04:21:50.717Z,79.91
2018-05-23T04:22:50.697Z,79.52
2018-05-23T04:23:50.679Z,79.62
2018-05-23T04:24:50.748Z,79.33
2018-05-23T04:25:50.640Z,79.05
2018-05-23T04:26:50.620Z,79.52
2018-05-23T04:27:50.601Z,81.34
2018-05-23T04:28:50.580Z,80.58
2018-05-23T04:29:50.563Z,80.96
2018-05-23T04:30:50.541Z,81.54
2018-05-23T04:31:50.521Z,81.92
2018-05-23T04:32:50.503Z,82.01
2018-05-23T04:33:50.482Z,82.01
2018-05-23T04:34:50.462Z,82.01
2018-05-23T04:35:50.444Z,82.11
2018-05-23T04:36:50.426Z,82.59
2018-05-23T04:37:50.405Z,82.59
2018-05-23T04:38:50.385Z,82.59
2018-05-23T04:39:50.381Z,82.78
2018-05-23T04:40:50.346Z,82.78
2018-05-23T04:41:50.331Z,82.68
2018-05-23T04:42:50.311Z,82.97
2018-05-23T04:43:50.287Z,81.54
2018-05-23T04:44:50.269Z,81.63
2018-05-23T04:45:50.248Z,82.40
2018-05-23T04:46:50.228Z,82.20
2018-05-23T04:47:50.210Z,82.11
2018-05-23T04:48:50.302Z,82.49
2018-05-23T04:49:50.170Z,82.97
2018-05-23T04:50:50.151Z,82.30
2018-05-23T04:51:50.134Z,82.68
2018-05-23T04:52:50.112Z,82.49
2018-05-23T04:53:50.094Z,82.78
2018-05-23T04:54:50.072Z,82.59
2018-05-23T04:55:50.057Z,83.16
2018-05-23T04:56:50.035Z,82.49
2018-05-23T04:57:50.015Z,82.49
2018-05-23T04:58:49.996Z,82.11
2018-05-23T04:59:49.975Z,82.78
2018-05-23T05:00:49.977Z,82.01
2018-05-23T05:01:49.940Z,81.15
2018-05-23T05:02:49.919Z,81.73
2018-05-23T05:03:49.898Z,81.92
2018-05-23T05:04:49.879Z,82.78
2018-05-23T05:05:49.860Z,82.78
2018-05-23T05:06:49.839Z,83.36
2018-05-23T05:07:49.819Z,83.93
2018-05-23T05:08:49.800Z,84.59
2018-05-23T05:09:49.781Z,85.17
2018-05-23T05:10:49.761Z,85.84
2018-05-23T05:11:49.742Z,85.27
2018-05-23T05:12:49.724Z,84.79
2018-05-23T05:13:49.771Z,85.41
2018-05-23T05:14:49.684Z,84.79
2018-05-23T05:15:49.664Z,84.94
2018-05-23T05:16:50.397Z,84.59
2018-05-23T05:17:49.626Z,83.93
2018-05-23T05:18:49.605Z,85.41
2018-05-23T05:19:49.588Z,83.79
2018-05-23T05:20:49.567Z,83.69
2018-05-23T05:21:49.546Z,83.12
2018-05-23T05:22:49.529Z,82.01
2018-05-23T05:23:49.506Z,82.54
2018-05-23T05:24:49.546Z,83.40
2018-05-23T05:25:49.467Z,83.69
2018-05-23T05:26:49.450Z,82.93
2018-05-23T05:27:49.428Z,81.78
2018-05-23T05:28:49.409Z,82.74
2018-05-23T05:29:49.394Z,82.74
2018-05-23T05:30:49.369Z,82.78
2018-05-23T05:31:49.368Z,81.63
2018-05-23T05:32:53.837Z,81.73
2018-05-23T05:33:49.310Z,80.96
2018-05-23T05:34:49.290Z,82.59
2018-05-23T05:35:49.269Z,83.45
2018-05-23T05:36:49.251Z,83.64
2018-05-23T05:37:49.230Z,83.36
2018-05-23T05:38:49.251Z,83.45
2018-05-23T05:39:49.191Z,83.54
2018-05-23T05:40:49.170Z,83.26
2018-05-23T05:41:49.151Z,82.78
2018-05-23T05:42:49.134Z,83.73
2018-05-23T05:43:49.112Z,84.22
2018-05-23T05:44:49.091Z,83.45
2018-05-23T05:45:49.073Z,86.99
2018-05-23T05:46:49.140Z,86.41
2018-05-23T05:47:49.033Z,86.51
2018-05-23T05:48:49.012Z,85.94
2018-05-23T05:49:48.994Z,85.17
2018-05-23T05:50:48.974Z,87.08
2018-05-23T05:51:48.954Z,86.51
2018-05-23T05:52:48.934Z,86.99
2018-05-23T05:53:49.017Z,87.76
2018-05-23T05:54:49.645Z,87.47
2018-05-23T05:55:48.877Z,86.04
2018-05-23T05:56:48.854Z,86.90
2018-05-23T05:57:48.835Z,86.61
2018-05-23T05:58:48.815Z,87.56
2018-05-23T05:59:48.796Z,87.76
2018-05-23T06:00:48.776Z,87.47
2018-05-23T06:01:48.757Z,88.52
2018-05-23T06:02:48.737Z,86.99
2018-05-23T06:03:48.716Z,88.13
2018-05-23T06:04:48.697Z,88.13
2018-05-23T06:05:48.678Z,88.81
2018-05-23T06:06:48.657Z,88.04
2018-05-23T06:07:48.638Z,88.33
2018-05-23T06:08:48.621Z,90.05
2018-05-23T06:09:48.616Z,89.29
2018-05-23T06:10:49.331Z,89.29
2018-05-23T06:11:48.561Z,89.38
2018-05-23T06:12:48.540Z,87.18
2018-05-23T06:13:48.521Z,88.52
2018-05-23T06:14:48.502Z,88.62
2018-05-23T06:15:48.482Z,89.67
2018-05-23T06:16:48.465Z,89.58
2018-05-23T06:17:48.444Z,89.29
2018-05-23T06:18:48.423Z,89.19
2018-05-23T06:19:48.407Z,88.81
2018-05-23T06:20:48.384Z,88.23
2018-05-23T06:21:48.366Z,89.48
2018-05-23T06:22:48.345Z,88.33
2018-05-23T06:23:48.326Z,87.27
2018-05-23T06:24:48.307Z,87.37
2018-05-23T06:25:48.288Z,88.18
2018-05-23T06:26:49.019Z,88.47
2018-05-23T06:27:48.248Z,88.95
2018-05-23T06:28:48.229Z,90.96
2018-05-23T06:29:48.213Z,90.48
2018-05-23T06:30:48.190Z,91.05
2018-05-23T06:31:48.170Z,90.58
2018-05-23T06:32:48.152Z,91.34
2018-05-23T06:33:48.134Z,91.34
2018-05-23T06:34:48.118Z,91.15
2018-05-23T06:35:48.092Z,91.05
2018-05-23T06:36:48.079Z,91.20
2018-05-23T06:37:48.883Z,90.91
2018-05-23T06:38:48.036Z,89.29
2018-05-23T06:39:48.016Z,88.56
2018-05-23T06:40:47.996Z,87.61
2018-05-23T06:41:47.978Z,86.17
2018-05-23T06:42:47.957Z,85.88
2018-05-23T06:43:47.939Z,86.17
2018-05-23T06:44:47.920Z,87.13
2018-05-23T06:45:47.900Z,86.46
2018-05-23T06:46:47.880Z,88.85
2018-05-23T06:47:47.862Z,90.09
2018-05-23T06:48:47.843Z,90.00
2018-05-23T06:49:47.825Z,88.95
2018-05-23T06:50:47.803Z,89.72
2018-05-23T06:51:47.786Z,90.29
2018-05-23T06:52:47.768Z,89.72
2018-05-23T06:53:47.748Z,89.04
2018-05-23T06:54:47.728Z,87.41
2018-05-23T06:55:47.711Z,86.27
2018-05-23T06:56:47.690Z,85.31
2018-05-23T06:57:47.671Z,84.45
2018-05-23T06:58:47.652Z,85.50
2018-05-23T06:59:47.632Z,87.03
2018-05-23T07:00:47.617Z,86.60
2018-05-23T07:01:47.594Z,86.88
2018-05-23T07:02:47.574Z,88.90
2018-05-23T07:03:47.556Z,87.84
2018-05-23T07:04:47.538Z,87.46
2018-05-23T07:05:47.529Z,87.55
2018-05-23T07:06:47.500Z,87.08
2018-05-23T07:07:47.481Z,94.17
2018-05-23T07:08:47.464Z,92.54
2018-05-23T07:09:47.444Z,91.00
2018-05-23T07:10:47.424Z,90.91
2018-05-23T07:11:47.406Z,92.15
2018-05-23T07:12:47.387Z,93.07
2018-05-23T07:13:47.367Z,91.05
2018-05-23T07:14:47.349Z,90.77
2018-05-23T07:15:48.082Z,90.00
2018-05-23T07:16:47.312Z,88.90
2018-05-23T07:17:47.319Z,86.69
2018-05-23T07:18:47.275Z,89.86
2018-05-23T07:19:47.262Z,89.76
2018-05-23T07:20:47.237Z,89.95
2018-05-23T07:21:47.219Z,91.19
2018-05-23T07:22:47.203Z,91.19
2018-05-23T07:23:47.180Z,92.25
2018-05-23T07:24:47.166Z,94.17
2018-05-23T07:25:47.233Z,94.07
2018-05-23T07:26:47.125Z,91.82
2018-05-23T07:27:47.106Z,94.45
2018-05-23T07:28:47.088Z,92.25
2018-05-23T07:29:47.072Z,91.77
2018-05-23T07:30:47.050Z,92.06
2018-05-23T07:31:47.044Z,90.86
2018-05-23T07:32:47.012Z,92.25
2018-05-23T07:33:46.994Z,93.59
2018-05-23T07:34:46.976Z,91.24
2018-05-23T07:35:46.957Z,94.17
2018-05-23T07:36:46.940Z,92.92
2018-05-23T07:37:46.924Z,91.34
2018-05-23T07:38:46.906Z,94.26
2018-05-23T07:39:46.886Z,91.91
2018-05-23T07:40:46.865Z,93.54
2018-05-23T07:41:46.849Z,92.68
2018-05-23T07:42:46.830Z,91.43
2018-05-23T07:43:46.811Z,90.47
2018-05-23T07:44:46.791Z,92.39
2018-05-23T07:45:46.776Z,93.26
2018-05-23T07:46:46.754Z,94.59
2018-05-23T07:47:50.490Z,91.82
2018-05-23T07:48:46.719Z,94.50
2018-05-23T07:49:46.701Z,91.72
2018-05-23T07:50:46.683Z,89.90
2018-05-23T07:51:46.665Z,89.13
2018-05-23T07:52:46.651Z,90.38
2018-05-23T07:53:46.628Z,89.90
2018-05-23T07:54:46.610Z,89.37
2018-05-23T07:55:46.591Z,92.15
2018-05-23T07:56:46.688Z,92.05
2018-05-23T07:57:46.562Z,92.24
2018-05-23T07:58:46.539Z,90.71
2018-05-23T07:59:46.519Z,95.89
2018-05-23T08:00:46.502Z,96.27
2018-05-23T08:01:46.486Z,92.54
2018-05-23T08:02:46.465Z,93.40
2018-05-23T08:03:46.448Z,93.68
2018-05-23T08:04:49.435Z,93.59
2018-05-23T08:05:46.414Z,93.21
2018-05-23T08:06:46.396Z,91.72
2018-05-23T08:07:46.383Z,99.99
2018-05-23T08:08:46.362Z,93.68
2018-05-23T08:09:46.343Z,92.63
2018-05-23T08:10:47.825Z,93.97
2018-05-23T08:11:46.307Z,98.38
2018-05-23T08:12:46.291Z,94.26
2018-05-23T08:13:46.274Z,92.82
2018-05-23T08:14:46.255Z,95.51
2018-05-23T08:15:46.237Z,96.08
2018-05-23T08:16:46.220Z,93.49
2018-05-23T08:17:46.204Z,93.88
2018-05-23T08:18:46.184Z,95.21
2018-05-23T08:19:46.168Z,96.37
2018-05-23T08:20:46.150Z,95.79
2018-05-23T08:21:46.134Z,96.47
2018-05-23T08:22:46.116Z,96.08
2018-05-23T08:23:46.100Z,94.26
2018-05-23T08:24:46.082Z,95.98
2018-05-23T08:25:46.065Z,96.18
2018-05-23T08:26:46.049Z,95.79
2018-05-23T08:27:46.030Z,97.04
2018-05-23T08:28:46.014Z,95.41
2018-05-23T08:29:46.014Z,96.18
2018-05-23T08:30:45.977Z,98.67
2018-05-23T08:31:45.960Z,95.21
2018-05-23T08:32:45.944Z,99.99
2018-05-23T08:33:45.928Z,96.27
2018-05-23T08:34:45.909Z,95.41
2018-05-23T08:35:45.894Z,93.63
2018-05-23T08:36:45.875Z,97.66
2018-05-23T08:37:46.608Z,98.14
2018-05-23T08:38:45.840Z,99.99
2018-05-23T08:39:45.824Z,98.19
2018-05-23T08:40:45.807Z,98.67
2018-05-23T08:41:45.790Z,98.96
2018-05-23T08:42:45.775Z,99.15
2018-05-23T08:43:45.758Z,96.47
2018-05-23T08:44:45.739Z,95.55
2018-05-23T08:45:45.723Z,95.26
2018-05-23T08:46:45.702Z,97.66
2018-05-23T08:47:45.687Z,99.29
2018-05-23T08:48:45.670Z,97.28
2018-05-23T08:49:45.652Z,96.89
2018-05-23T08:50:45.634Z,97.86
2018-05-23T08:51:45.621Z,96.61
2018-05-23T08:52:45.601Z,99.87
2018-05-23T08:53:45.584Z,99.99
2018-05-23T08:54:45.565Z,97.66
2018-05-23T08:55:45.551Z,97.38
2018-05-23T08:56:45.532Z,96.61
2018-05-23T08:57:45.519Z,98.91
2018-05-23T08:58:45.498Z,97.47
2018-05-23T08:59:46.232Z,99.99
2018-05-23T09:00:45.466Z,97.28
2018-05-23T09:01:45.447Z,98.72
2018-05-23T09:02:45.430Z,99.87
2018-05-23T09:03:45.415Z,99.99
2018-05-23T09:04:45.491Z,99.15
2018-05-23T09:05:45.380Z,97.09
2018-05-23T09:06:45.362Z,96.13
2018-05-23T09:07:45.347Z,98.91
2018-05-23T09:08:45.330Z,99.99
2018-05-23T09:09:45.313Z,99.77
2018-05-23T09:10:49.050Z,99.99
2018-05-23T09:11:45.278Z,99.29
2018-05-23T09:12:45.261Z,98.14
2018-05-23T09:13:45.246Z,99.99
2018-05-23T09:14:45.229Z,99.99
2018-05-23T09:15:45.211Z,97.95
2018-05-23T09:16:45.945Z,99.99
2018-05-23T09:17:45.178Z,99.58
2018-05-23T09:18:45.160Z,98.82
2018-05-23T09:19:45.147Z,99.99
2018-05-23T09:20:45.127Z,99.87
2018-05-23T09:21:45.111Z,97.47
2018-05-23T09:22:45.094Z,99.96
2018-05-23T09:23:45.078Z,99.87
2018-05-23T09:24:45.062Z,99.99
2018-05-23T09:25:45.044Z,99.99
2018-05-23T09:26:45.028Z,99.99
2018-05-23T09:27:45.011Z,99.99
2018-05-23T09:28:44.997Z,99.58
2018-05-23T09:29:44.978Z,97.14
2018-05-23T09:30:44.961Z,99.25
2018-05-23T09:31:44.945Z,98.91
2018-05-23T09:32:45.679Z,99.99
2018-05-23T09:33:44.911Z,96.89
2018-05-23T09:34:44.894Z,99.99
2018-05-23T09:35:44.880Z,99.30
2018-05-23T09:36:44.863Z,99.99
2018-05-23T09:37:44.847Z,99.99
2018-05-23T09:38:44.829Z,98.34
2018-05-23T09:39:44.815Z,98.43
2018-05-23T09:40:44.800Z,99.49
2018-05-23T09:41:44.782Z,95.75
2018-05-23T09:42:44.765Z,99.99
2018-05-23T09:43:44.750Z,98.68
2018-05-23T09:44:44.733Z,99.99
2018-05-23T09:45:44.722Z,99.99
2018-05-23T09:46:44.704Z,99.99
2018-05-23T09:47:44.687Z,99.99
2018-05-23T09:48:44.670Z,98.34
2018-05-23T09:49:44.656Z,99.11
2018-05-23T09:50:44.640Z,99.99
2018-05-23T09:51:44.625Z,99.99
2018-05-23T09:52:44.610Z,99.99
2018-05-23T09:53:44.595Z,99.21
2018-05-23T09:54:44.579Z,99.99
2018-05-23T09:55:44.564Z,98.00
2018-05-23T09:56:44.551Z,99.99
2018-05-23T09:57:44.534Z,99.99
2018-05-23T09:58:44.521Z,96.47
2018-05-23T09:59:46.004Z,99.99
2018-05-23T10:00:44.489Z,99.44
2018-05-23T10:01:44.479Z,99.99
2018-05-23T10:02:44.458Z,99.99
2018-05-23T10:03:44.443Z,99.99
2018-05-23T10:04:44.429Z,99.99
2018-05-23T10:05:48.167Z,98.91
2018-05-23T10:06:44.398Z,98.10
2018-05-23T10:07:44.383Z,99.98
2018-05-23T10:08:44.368Z,99.99
2018-05-23T10:09:44.355Z,97.67
2018-05-23T10:10:44.340Z,99.99
2018-05-23T10:11:44.325Z,99.83
2018-05-23T10:12:44.309Z,99.99
2018-05-23T10:13:44.295Z,99.99
2018-05-23T10:14:44.279Z,98.72
2018-05-23T10:15:44.266Z,99.69
2018-05-23T10:16:44.251Z,98.92
2018-05-23T10:17:44.237Z,98.63
2018-05-23T10:18:44.222Z,99.40
2018-05-23T10:19:44.208Z,99.59
2018-05-23T10:20:44.195Z,99.26
2018-05-23T10:21:44.181Z,98.49
2018-05-23T10:22:44.166Z,99.83
2018-05-23T10:23:44.151Z,99.99
2018-05-23T10:24:44.138Z,99.88
2018-05-23T10:25:44.124Z,98.14
2018-05-23T10:26:44.108Z,99.30
2018-05-23T10:27:44.094Z,99.26
2018-05-23T10:28:44.081Z,99.64
2018-05-23T10:29:44.066Z,99.99
2018-05-23T10:30:44.053Z,99.99
2018-05-23T10:31:44.038Z,99.21
2018-05-23T10:32:44.024Z,99.99
2018-05-23T10:33:46.263Z,98.91
2018-05-23T10:34:43.995Z,99.11
2018-05-23T10:35:43.982Z,99.99
2018-05-23T10:36:43.967Z,97.96
2018-05-23T10:37:43.954Z,98.77
2018-05-23T10:38:43.938Z,99.11
2018-05-23T10:39:45.428Z,98.53
2018-05-23T10:40:43.911Z,97.42
2018-05-23T10:41:43.897Z,99.99
2018-05-23T10:42:43.883Z,98.63
2018-05-23T10:43:43.870Z,99.44
2018-05-23T10:44:43.857Z,99.78
2018-05-23T10:45:43.840Z,98.97
2018-05-23T10:46:43.829Z,98.87
2018-05-23T10:47:43.854Z,97.52
2018-05-23T10:48:43.799Z,97.04
2018-05-23T10:49:43.785Z,97.33
2018-05-23T10:50:43.768Z,99.26
2018-05-23T10:51:43.793Z,97.76
2018-05-23T10:52:43.742Z,97.09
2018-05-23T10:53:43.729Z,97.09
2018-05-23T10:54:43.718Z,96.42
2018-05-23T10:55:43.701Z,94.59
2018-05-23T10:56:48.943Z,95.26
2018-05-23T10:57:43.673Z,94.10
2018-05-23T10:58:43.664Z,93.62
2018-05-23T10:59:43.645Z,94.73
2018-05-23T11:00:43.631Z,95.89
2018-05-23T11:01:43.619Z,94.34
2018-05-23T11:02:43.604Z,94.73
2018-05-23T11:03:43.591Z,96.17
2018-05-23T11:04:43.577Z,96.37
2018-05-23T11:05:43.672Z,95.31
2018-05-23T11:06:43.550Z,93.96
2018-05-23T11:07:43.537Z,95.31
2018-05-23T11:08:43.528Z,96.66
2018-05-23T11:09:43.511Z,95.69
2018-05-23T11:10:43.497Z,96.41
2018-05-23T11:11:43.484Z,96.36
2018-05-23T11:12:43.470Z,96.27
2018-05-23T11:13:46.460Z,94.06
2018-05-23T11:14:43.454Z,95.55
2018-05-23T11:15:43.431Z,96.56
2018-05-23T11:16:43.417Z,96.46
2018-05-23T11:17:43.404Z,96.37
2018-05-23T11:18:43.391Z,96.89
2018-05-23T11:19:43.379Z,97.04
2018-05-23T11:20:43.364Z,97.28
2018-05-23T11:21:43.353Z,96.99
2018-05-23T11:22:43.338Z,97.38
2018-05-23T11:23:43.325Z,97.96
2018-05-23T11:24:43.311Z,98.72
2018-05-23T11:25:43.298Z,97.81
2018-05-23T11:26:43.285Z,98.00
2018-05-23T11:27:43.272Z,97.62
2018-05-23T11:28:43.258Z,96.99
2018-05-23T11:29:43.336Z,96.61
2018-05-23T11:30:43.230Z,97.47
2018-05-23T11:31:43.218Z,96.80
2018-05-23T11:32:43.205Z,97.14
2018-05-23T11:33:43.193Z,96.32
2018-05-23T11:34:43.177Z,97.09
2018-05-23T11:35:43.164Z,98.54
2018-05-23T11:36:43.152Z,97.81
2018-05-23T11:37:43.142Z,96.94
2018-05-23T11:38:43.125Z,97.28
2018-05-23T11:39:43.120Z,95.84
2018-05-23T11:40:43.099Z,95.06
2018-05-23T11:41:43.088Z,94.96
2018-05-23T11:42:43.073Z,94.73
2018-05-23T11:43:43.060Z,95.45
2018-05-23T11:44:43.060Z,95.55
2018-05-23T11:45:43.784Z,93.33
2018-05-23T11:46:43.086Z,95.50
2018-05-23T11:47:43.007Z,95.50
2018-05-23T11:48:42.994Z,92.22
2018-05-23T11:49:42.981Z,92.90
2018-05-23T11:50:42.968Z,93.48
2018-05-23T11:51:42.953Z,94.00
2018-05-23T11:52:42.940Z,89.67
2018-05-23T11:53:42.928Z,91.98
2018-05-23T11:54:42.973Z,90.00
2018-05-23T11:55:42.900Z,89.53
2018-05-23T11:56:42.887Z,91.26
2018-05-23T11:57:42.874Z,89.19
2018-05-23T11:58:42.862Z,91.12
2018-05-23T11:59:42.856Z,94.10
2018-05-23T12:00:42.834Z,89.67
2018-05-23T12:01:42.822Z,91.74
2018-05-23T12:02:42.810Z,86.15
2018-05-23T12:03:42.792Z,89.48
2018-05-23T12:04:42.782Z,88.13
2018-05-23T12:05:42.766Z,90.16
2018-05-23T12:06:42.756Z,90.92
2018-05-23T12:07:42.739Z,89.96
2018-05-23T12:08:42.725Z,91.31
2018-05-23T12:09:42.711Z,89.86
2018-05-23T12:10:42.761Z,89.86
2018-05-23T12:11:42.682Z,89.09
2018-05-23T12:12:42.668Z,90.48
2018-05-23T12:13:42.654Z,91.83
2018-05-23T12:14:42.639Z,93.28
2018-05-23T12:15:42.624Z,91.83
2018-05-23T12:16:42.610Z,87.74
2018-05-23T12:17:42.604Z,86.54
2018-05-23T12:18:42.581Z,90.97
2018-05-23T12:19:42.587Z,88.17
2018-05-23T12:20:42.553Z,89.53
2018-05-23T12:21:42.539Z,90.97
2018-05-23T12:22:47.779Z,92.65
2018-05-23T12:23:42.510Z,91.98
2018-05-23T12:24:42.495Z,90.38
2018-05-23T12:25:42.479Z,89.13
2018-05-23T12:26:42.464Z,83.63
2018-05-23T12:27:42.450Z,86.04
2018-05-23T12:28:42.436Z,84.21
2018-05-23T12:29:42.422Z,87.68
2018-05-23T12:30:42.406Z,88.26
2018-05-23T12:31:42.391Z,83.53
2018-05-23T12:32:42.378Z,82.86
2018-05-23T12:33:42.364Z,81.26
2018-05-23T12:34:42.348Z,82.42
2018-05-23T12:35:42.334Z,85.89
2018-05-23T12:36:42.320Z,87.05
2018-05-23T12:37:42.304Z,82.32
2018-05-23T12:38:42.289Z,86.43
2018-05-23T12:39:42.275Z,77.21
2018-05-23T12:40:42.261Z,78.94
2018-05-23T12:41:42.248Z,75.92
2018-05-23T12:42:42.232Z,81.22
2018-05-23T12:43:42.217Z,77.42
2018-05-23T12:44:42.204Z,83.05
2018-05-23T12:45:42.189Z,81.02
2018-05-23T12:46:42.175Z,80.26
2018-05-23T12:47:42.159Z,78.48
2018-05-23T12:48:42.146Z,80.66
2018-05-23T12:49:42.132Z,81.24
2018-05-23T12:50:42.116Z,80.46
2018-05-23T12:51:42.102Z,80.76
2018-05-23T12:52:42.088Z,82.05